This is the latest recevied weather packets stored in our database for station/object DB0FN-10. If no packets are shown the sender has not sent any weather packets the latest 10 day(s).
| Time | Temp. | Humidity | Pressure | Rain* | Wind** | Luminosity | Snow |
|---|---|---|---|---|---|---|---|
| 1787953645 | 21.11° C | 71% | 1022.8 hPa | - | - | - | - |
| 1787952745 | 20.56° C | 74% | 1022.7 hPa | - | - | - | - |
| 1787951845 | 20° C | 79% | 1022.9 hPa | - | - | - | - |
| 1787950944 | 20.56° C | 80% | 1022.8 hPa | - | - | - | - |
| 1787950044 | 20° C | 81% | 1022.6 hPa | - | - | - | - |
| 1787949144 | 20.56° C | 75% | 1022.3 hPa | - | - | - | - |
| 1787948244 | 20.56° C | 76% | 1022.6 hPa | - | - | - | - |
| 1787947344 | 21.11° C | 75% | 1022.1 hPa | - | - | - | - |
| 1787946444 | 20.56° C | 77% | 1021.9 hPa | - | - | - | - |
| 1787945544 | 22.22° C | 73% | 1022.7 hPa | - | - | - | - |
| 1787944644 | 22.22° C | 70% | 1022.1 hPa | - | - | - | - |
| 1787943744 | 23.33° C | 65% | 1021.7 hPa | - | - | - | - |
| 1787942844 | 23.33° C | 63% | 1021.7 hPa | - | - | - | - |
| 1787941944 | 23.89° C | 63% | 1021.4 hPa | - | - | - | - |
| 1787941044 | 23.89° C | 62% | 1021 hPa | - | - | - | - |
| 1787940144 | 23.89° C | 59% | 1021 hPa | - | - | - | - |
| 1787939244 | 23.89° C | 61% | 1021 hPa | - | - | - | - |
| 1787938343 | 24.44° C | 62% | 1021.1 hPa | - | - | - | - |
| 1787937443 | 24.44° C | 63% | 1020.8 hPa | - | - | - | - |
| 1787936543 | 24.44° C | 62% | 1020.6 hPa | - | - | - | - |
| 1787935643 | 24.44° C | 62% | 1020.3 hPa | - | - | - | - |
| 1787934743 | 25° C | 61% | 1020.6 hPa | - | - | - | - |
| 1787933843 | 25° C | 63% | 1020.6 hPa | - | - | - | - |
| 1787932943 | 25° C | 62% | 1020.5 hPa | - | - | - | - |
| 1787932043 | 25.56° C | 62% | 1020.2 hPa | - | - | - | - |
* Rain since midnight (hover to see other rain measurements)
** Current wind speed in m/s (hover to see current wind gust speed)